createdAt,value
2022-10-13T00:00:05.984Z,19.23
2022-10-13T00:01:06.007Z,19.25
2022-10-13T00:02:05.935Z,19.25
2022-10-13T00:03:05.922Z,19.23
2022-10-13T00:04:05.912Z,19.26
2022-10-13T00:05:05.929Z,19.23
2022-10-13T00:06:05.895Z,19.23
2022-10-13T00:07:05.878Z,19.23
2022-10-13T00:08:05.869Z,19.25
2022-10-13T00:09:05.861Z,19.23
2022-10-13T00:10:05.881Z,19.23
2022-10-13T00:11:05.838Z,19.22
2022-10-13T00:12:05.833Z,19.23
2022-10-13T00:13:05.817Z,19.23
2022-10-13T00:14:05.806Z,19.23
2022-10-13T00:15:05.833Z,19.26
2022-10-13T00:16:05.784Z,19.23
2022-10-13T00:17:05.800Z,19.23
2022-10-13T00:18:05.764Z,19.25
2022-10-13T00:19:05.754Z,19.23
2022-10-13T00:20:05.744Z,19.23
2022-10-13T00:21:05.762Z,19.25
2022-10-13T00:22:05.721Z,19.25
2022-10-13T00:23:05.737Z,19.23
2022-10-13T00:24:05.701Z,19.25
2022-10-13T00:25:05.689Z,19.25
2022-10-13T00:26:05.679Z,19.25
2022-10-13T00:27:05.670Z,19.25
2022-10-13T00:28:05.684Z,19.25
2022-10-13T00:29:05.649Z,19.25
2022-10-13T00:30:05.636Z,19.23
2022-10-13T00:31:05.626Z,19.23
2022-10-13T00:32:05.614Z,19.23
2022-10-13T00:33:05.627Z,19.23
2022-10-13T00:34:05.620Z,19.25
2022-10-13T00:35:05.584Z,19.23
2022-10-13T00:36:05.574Z,19.25
2022-10-13T00:37:05.563Z,19.23
2022-10-13T00:38:05.551Z,19.23
2022-10-13T00:39:05.571Z,19.25
2022-10-13T00:40:05.530Z,19.25
2022-10-13T00:41:05.522Z,19.23
2022-10-13T00:42:05.510Z,19.25
2022-10-13T00:43:05.501Z,19.26
2022-10-13T00:44:05.525Z,19.25
2022-10-13T00:45:05.483Z,19.25
2022-10-13T00:46:05.467Z,19.25
2022-10-13T00:47:05.457Z,19.25
2022-10-13T00:48:05.454Z,19.23
2022-10-13T00:49:05.492Z,19.25
2022-10-13T00:50:05.428Z,19.23
2022-10-13T00:51:05.413Z,19.25
2022-10-13T00:52:05.403Z,19.23
2022-10-13T00:53:05.396Z,19.25
2022-10-13T00:54:05.413Z,19.23
2022-10-13T00:55:05.398Z,19.25
2022-10-13T00:56:05.363Z,19.25
2022-10-13T00:57:05.350Z,19.23
2022-10-13T00:58:05.719Z,19.23
2022-10-13T00:59:05.330Z,19.25
2022-10-13T01:00:05.353Z,19.25
2022-10-13T01:01:05.389Z,19.23
2022-10-13T01:02:05.296Z,19.23
2022-10-13T01:03:05.289Z,19.23
2022-10-13T01:04:05.279Z,19.23
2022-10-13T01:05:05.317Z,19.25
2022-10-13T01:06:05.258Z,19.25
2022-10-13T01:07:05.246Z,19.23
2022-10-13T01:08:05.234Z,19.23
2022-10-13T01:09:05.222Z,19.23
2022-10-13T01:10:05.239Z,19.23
2022-10-13T01:11:05.201Z,19.23
2022-10-13T01:12:05.188Z,19.25
2022-10-13T01:13:05.181Z,19.25
2022-10-13T01:14:05.174Z,19.23
2022-10-13T01:15:05.187Z,19.23
2022-10-13T01:16:05.151Z,19.23
2022-10-13T01:17:05.141Z,19.23
2022-10-13T01:18:05.128Z,19.25
2022-10-13T01:19:05.117Z,19.23
2022-10-13T01:20:05.132Z,19.25
2022-10-13T01:21:05.146Z,19.23
2022-10-13T01:22:05.086Z,19.23
2022-10-13T01:23:05.083Z,19.23
2022-10-13T01:24:05.062Z,19.23
2022-10-13T01:25:05.055Z,19.25
2022-10-13T01:26:05.068Z,19.23
2022-10-13T01:27:05.034Z,19.25
2022-10-13T01:28:05.021Z,19.23
2022-10-13T01:29:05.009Z,19.23
2022-10-13T01:30:05.000Z,19.23
2022-10-13T01:31:05.016Z,19.23
2022-10-13T01:32:05.005Z,19.23
2022-10-13T01:33:04.973Z,19.23
2022-10-13T01:34:04.956Z,19.23
2022-10-13T01:35:04.948Z,19.25
2022-10-13T01:36:04.935Z,19.23
2022-10-13T01:37:04.976Z,19.23
2022-10-13T01:38:04.914Z,19.23
2022-10-13T01:39:04.904Z,19.23
2022-10-13T01:40:04.894Z,19.25
2022-10-13T01:41:04.882Z,19.23
2022-10-13T01:42:04.899Z,19.23
2022-10-13T01:43:04.862Z,19.25
2022-10-13T01:44:04.850Z,19.25
2022-10-13T01:45:04.844Z,19.23
2022-10-13T01:46:04.830Z,19.23
2022-10-13T01:47:04.847Z,19.23
2022-10-13T01:48:04.838Z,19.23
2022-10-13T01:49:04.800Z,19.25
2022-10-13T01:50:04.787Z,19.25
2022-10-13T01:51:04.777Z,19.23
2022-10-13T01:52:04.766Z,19.23
2022-10-13T01:53:04.806Z,19.23
2022-10-13T01:54:04.744Z,19.25
2022-10-13T01:55:04.737Z,19.23
2022-10-13T01:56:04.723Z,19.23
2022-10-13T01:57:04.715Z,19.25
2022-10-13T01:58:04.733Z,19.23
2022-10-13T01:59:04.695Z,19.23
2022-10-13T02:00:04.736Z,19.23
2022-10-13T02:01:04.754Z,19.22
2022-10-13T02:02:04.659Z,19.23
2022-10-13T02:03:04.678Z,19.23
2022-10-13T02:04:04.639Z,19.23
2022-10-13T02:05:04.631Z,19.23
2022-10-13T02:06:04.645Z,19.22
2022-10-13T02:07:04.610Z,19.25
2022-10-13T02:08:04.600Z,19.23
2022-10-13T02:09:04.611Z,19.23
2022-10-13T02:10:04.575Z,19.23
2022-10-13T02:11:04.593Z,19.23
2022-10-13T02:12:04.554Z,19.22
2022-10-13T02:13:04.546Z,19.23
2022-10-13T02:14:04.532Z,19.25
2022-10-13T02:15:04.526Z,19.22
2022-10-13T02:16:04.543Z,19.23
2022-10-13T02:17:04.504Z,19.25
2022-10-13T02:18:04.492Z,19.23
2022-10-13T02:19:04.482Z,19.23
2022-10-13T02:20:04.471Z,19.23
2022-10-13T02:21:04.489Z,19.22
2022-10-13T02:22:04.449Z,19.23
2022-10-13T02:23:04.437Z,19.25
2022-10-13T02:24:04.427Z,19.22
2022-10-13T02:25:04.526Z,19.25
2022-10-13T02:26:04.441Z,19.23
2022-10-13T02:27:04.398Z,19.23
2022-10-13T02:28:04.400Z,19.22
2022-10-13T02:29:04.377Z,19.25
2022-10-13T02:30:04.366Z,19.23
2022-10-13T02:31:04.357Z,19.25
2022-10-13T02:32:04.371Z,19.23
2022-10-13T02:33:04.333Z,19.25
2022-10-13T02:34:04.323Z,19.25
2022-10-13T02:35:04.310Z,19.23
2022-10-13T02:36:04.299Z,19.25
2022-10-13T02:37:04.317Z,19.23
2022-10-13T02:38:04.277Z,19.23
2022-10-13T02:39:04.270Z,19.23
2022-10-13T02:40:04.257Z,19.22
2022-10-13T02:41:04.270Z,19.25
2022-10-13T02:42:04.265Z,19.23
2022-10-13T02:43:04.227Z,19.23
2022-10-13T02:44:04.218Z,19.22
2022-10-13T02:45:04.206Z,19.22
2022-10-13T02:46:04.193Z,19.23
2022-10-13T02:47:04.212Z,19.23
2022-10-13T02:48:04.172Z,19.23
2022-10-13T02:49:04.160Z,19.23
2022-10-13T02:50:04.152Z,19.23
2022-10-13T02:51:04.143Z,19.25
2022-10-13T02:52:04.160Z,19.23
2022-10-13T02:53:04.118Z,19.22
2022-10-13T02:54:04.107Z,19.22
2022-10-13T02:55:04.097Z,19.23
2022-10-13T02:56:04.088Z,19.23
2022-10-13T02:57:04.137Z,19.23
2022-10-13T02:58:04.066Z,19.23
2022-10-13T02:59:04.056Z,19.23
2022-10-13T03:00:04.045Z,19.23
2022-10-13T03:01:04.089Z,19.23
2022-10-13T03:02:04.052Z,19.23
2022-10-13T03:03:04.013Z,19.25
2022-10-13T03:04:04.001Z,19.23
2022-10-13T03:05:03.995Z,19.23
2022-10-13T03:06:03.986Z,19.22
2022-10-13T03:07:03.970Z,19.23
2022-10-13T03:08:03.987Z,19.22
2022-10-13T03:09:03.948Z,19.22
2022-10-13T03:10:03.938Z,19.23
2022-10-13T03:11:03.929Z,19.23
2022-10-13T03:12:03.915Z,19.23
2022-10-13T03:13:03.959Z,19.23
2022-10-13T03:14:03.894Z,19.23
2022-10-13T03:15:03.884Z,19.23
2022-10-13T03:16:03.875Z,19.23
2022-10-13T03:17:03.863Z,19.23
2022-10-13T03:18:03.880Z,19.23
2022-10-13T03:19:03.842Z,19.23
2022-10-13T03:20:03.830Z,19.25
2022-10-13T03:21:03.820Z,19.25
2022-10-13T03:22:03.810Z,19.23
2022-10-13T03:23:03.831Z,19.25
2022-10-13T03:24:03.788Z,19.23
2022-10-13T03:25:03.785Z,19.23
2022-10-13T03:26:03.767Z,19.23
2022-10-13T03:27:03.758Z,19.25
2022-10-13T03:28:03.770Z,19.23
2022-10-13T03:29:03.761Z,19.25
2022-10-13T03:30:03.728Z,19.23
2022-10-13T03:31:03.716Z,19.22
2022-10-13T03:32:03.702Z,19.25
2022-10-13T03:33:03.720Z,19.23
2022-10-13T03:34:03.705Z,19.23
2022-10-13T03:35:03.698Z,19.23
2022-10-13T03:36:03.661Z,19.23
2022-10-13T03:37:03.653Z,19.23
2022-10-13T03:38:03.642Z,19.23
2022-10-13T03:39:03.657Z,19.23
2022-10-13T03:40:03.663Z,19.22
2022-10-13T03:41:03.610Z,19.23
2022-10-13T03:42:03.596Z,19.22
2022-10-13T03:43:03.588Z,19.23
2022-10-13T03:44:03.576Z,19.23
2022-10-13T03:45:03.612Z,19.22
2022-10-13T03:46:03.580Z,19.23
2022-10-13T03:47:03.548Z,19.23
2022-10-13T03:48:03.533Z,19.22
2022-10-13T03:49:03.523Z,19.23
2022-10-13T03:50:03.511Z,19.25
2022-10-13T03:51:03.526Z,19.23
2022-10-13T03:52:03.492Z,19.22
2022-10-13T03:53:03.483Z,19.23
2022-10-13T03:54:03.472Z,19.22
2022-10-13T03:55:03.464Z,19.23
2022-10-13T03:56:03.472Z,19.22
2022-10-13T03:57:03.439Z,19.22
2022-10-13T03:58:03.450Z,19.23
2022-10-13T03:59:03.415Z,19.23
2022-10-13T04:00:03.407Z,19.23
2022-10-13T04:01:03.523Z,19.25
2022-10-13T04:02:03.509Z,19.22
2022-10-13T04:03:03.400Z,19.22
2022-10-13T04:04:03.368Z,19.25
2022-10-13T04:05:03.354Z,19.23
2022-10-13T04:06:03.344Z,19.23
2022-10-13T04:07:03.333Z,19.22
2022-10-13T04:08:03.347Z,19.23
2022-10-13T04:09:03.312Z,19.23
2022-10-13T04:10:03.325Z,19.23
2022-10-13T04:11:03.288Z,19.23
2022-10-13T04:12:03.285Z,19.22
2022-10-13T04:13:03.267Z,19.22
2022-10-13T04:14:03.258Z,19.23
2022-10-13T04:15:03.272Z,19.23
2022-10-13T04:16:03.238Z,19.23
2022-10-13T04:17:03.245Z,19.23
2022-10-13T04:18:03.241Z,19.22
2022-10-13T04:19:03.205Z,19.25
2022-10-13T04:20:03.193Z,19.23
2022-10-13T04:21:03.183Z,19.22
2022-10-13T04:22:03.172Z,19.23
2022-10-13T04:23:03.187Z,19.23
2022-10-13T04:24:03.153Z,19.23
2022-10-13T04:25:03.140Z,19.23
2022-10-13T04:26:03.130Z,19.23
2022-10-13T04:27:03.119Z,19.23
2022-10-13T04:28:03.133Z,19.23
2022-10-13T04:29:03.107Z,19.23
2022-10-13T04:30:03.086Z,19.22
2022-10-13T04:31:03.077Z,19.23
2022-10-13T04:32:03.094Z,19.23
2022-10-13T04:33:03.079Z,19.23
2022-10-13T04:34:03.045Z,19.23
2022-10-13T04:35:03.037Z,19.23
2022-10-13T04:36:03.024Z,19.23
2022-10-13T04:37:03.037Z,19.23
2022-10-13T04:38:03.002Z,19.23
2022-10-13T04:39:02.995Z,19.22
2022-10-13T04:40:02.980Z,19.22
2022-10-13T04:41:02.996Z,19.23
2022-10-13T04:42:02.959Z,19.23
2022-10-13T04:43:02.956Z,19.22
2022-10-13T04:44:02.937Z,19.22
2022-10-13T04:45:02.957Z,19.22
2022-10-13T04:46:02.916Z,19.22
2022-10-13T04:47:02.907Z,19.23
2022-10-13T04:48:02.922Z,19.23
2022-10-13T04:49:02.924Z,19.23
2022-10-13T04:50:02.873Z,19.23
2022-10-13T04:51:02.864Z,19.23
2022-10-13T04:52:02.853Z,19.23
2022-10-13T04:53:02.870Z,19.22
2022-10-13T04:54:02.834Z,19.23
2022-10-13T04:55:02.831Z,19.22
2022-10-13T04:56:02.809Z,19.23
2022-10-13T04:57:02.823Z,19.22
2022-10-13T04:58:02.788Z,19.22
2022-10-13T04:59:02.781Z,19.22
2022-10-13T05:00:02.769Z,19.23
2022-10-13T05:01:02.808Z,19.23
2022-10-13T05:02:02.745Z,19.23
2022-10-13T05:03:02.740Z,19.23
2022-10-13T05:04:02.734Z,19.23
2022-10-13T05:05:02.780Z,19.23
2022-10-13T05:06:02.704Z,19.23
2022-10-13T05:07:17.436Z,19.22
2022-10-13T05:08:03.681Z,19.22
2022-10-13T05:09:02.672Z,19.22
2022-10-13T05:10:02.662Z,19.23
2022-10-13T05:11:02.653Z,19.23
2022-10-13T05:12:02.666Z,19.22
2022-10-13T05:13:02.632Z,19.23
2022-10-13T05:14:02.642Z,19.22
2022-10-13T05:15:02.609Z,19.22
2022-10-13T05:16:02.603Z,19.23
2022-10-13T05:17:02.589Z,19.23
2022-10-13T05:18:02.601Z,19.23
2022-10-13T05:19:02.593Z,19.22
2022-10-13T05:20:02.564Z,19.23
2022-10-13T05:21:02.569Z,19.23
2022-10-13T05:22:02.533Z,19.23
2022-10-13T05:23:02.526Z,19.23
2022-10-13T05:24:02.538Z,19.23
2022-10-13T05:25:02.504Z,19.22
2022-10-13T05:26:02.490Z,19.22
2022-10-13T05:27:02.506Z,19.23
2022-10-13T05:28:02.470Z,19.22
2022-10-13T05:29:02.460Z,19.22
2022-10-13T05:30:02.450Z,19.22
2022-10-13T05:31:02.442Z,19.23
2022-10-13T05:32:02.466Z,19.22
2022-10-13T05:33:02.419Z,19.22
2022-10-13T05:34:02.406Z,19.23
2022-10-13T05:35:02.398Z,19.23
2022-10-13T05:36:02.385Z,19.22
2022-10-13T05:37:02.455Z,19.22
2022-10-13T05:38:02.388Z,19.23
2022-10-13T05:39:02.359Z,19.25
2022-10-13T05:40:02.342Z,19.22
2022-10-13T05:41:02.334Z,19.22
2022-10-13T05:42:02.347Z,19.22
2022-10-13T05:43:02.311Z,19.22
2022-10-13T05:44:02.302Z,19.23
2022-10-13T05:45:02.292Z,19.23
2022-10-13T05:46:02.278Z,19.22
2022-10-13T05:47:07.175Z,19.22
2022-10-13T05:48:03.257Z,19.22
2022-10-13T05:49:02.251Z,19.22
2022-10-13T05:50:02.236Z,19.23
2022-10-13T05:51:02.228Z,19.22
2022-10-13T05:52:02.244Z,19.23
2022-10-13T05:53:02.230Z,19.22
2022-10-13T05:54:02.194Z,19.23
2022-10-13T05:55:02.186Z,19.22
2022-10-13T05:56:02.172Z,19.23
2022-10-13T05:57:02.193Z,19.23
2022-10-13T05:58:02.151Z,19.21
2022-10-13T05:59:02.168Z,19.22
2022-10-13T06:00:02.130Z,19.22
2022-10-13T06:01:02.122Z,19.22
2022-10-13T06:02:02.271Z,19.22
2022-10-13T06:03:02.130Z,19.22
2022-10-13T06:04:02.088Z,19.22
2022-10-13T06:05:02.081Z,19.22
2022-10-13T06:06:02.068Z,19.22
2022-10-13T06:07:02.057Z,19.23
2022-10-13T06:08:02.077Z,19.22
2022-10-13T06:09:02.060Z,19.23
2022-10-13T06:10:02.051Z,19.22
2022-10-13T06:11:02.018Z,19.21
2022-10-13T06:12:02.005Z,19.23
2022-10-13T06:13:01.999Z,19.22
2022-10-13T06:14:02.019Z,19.22
2022-10-13T06:15:01.977Z,19.22
2022-10-13T06:16:01.960Z,19.22
2022-10-13T06:17:01.952Z,19.22
2022-10-13T06:18:01.940Z,19.22
2022-10-13T06:19:01.931Z,19.22
2022-10-13T06:20:01.949Z,19.23
2022-10-13T06:21:01.908Z,19.23
2022-10-13T06:22:03.733Z,19.23
2022-10-13T06:23:01.888Z,19.23
2022-10-13T06:24:01.878Z,19.23
2022-10-13T06:25:01.928Z,19.22
2022-10-13T06:26:01.856Z,19.23
2022-10-13T06:27:01.846Z,19.23
2022-10-13T06:28:01.833Z,19.22
2022-10-13T06:29:01.911Z,19.22
2022-10-13T06:30:01.836Z,19.23
2022-10-13T06:31:01.807Z,19.23
2022-10-13T06:32:01.791Z,19.23
2022-10-13T06:33:01.782Z,19.22
2022-10-13T06:34:01.770Z,19.22
2022-10-13T06:35:01.786Z,19.22
2022-10-13T06:36:01.750Z,19.22
2022-10-13T06:37:01.739Z,19.22
2022-10-13T06:38:01.752Z,19.22
2022-10-13T06:39:01.719Z,19.23
2022-10-13T06:40:01.707Z,19.23
2022-10-13T06:41:01.720Z,19.22
2022-10-13T06:42:01.709Z,19.23
2022-10-13T06:43:01.674Z,19.22
2022-10-13T06:44:01.702Z,19.23
2022-10-13T06:45:01.659Z,19.22
2022-10-13T06:46:01.642Z,19.23
2022-10-13T06:47:01.634Z,19.23
2022-10-13T06:48:01.621Z,19.23
2022-10-13T06:49:01.613Z,19.23
2022-10-13T06:50:01.631Z,19.22
2022-10-13T06:51:01.592Z,19.22
2022-10-13T06:52:01.578Z,19.22
2022-10-13T06:53:01.573Z,19.23
2022-10-13T06:54:01.560Z,19.23
2022-10-13T06:55:01.576Z,19.22
2022-10-13T06:56:01.551Z,19.23
2022-10-13T06:57:01.552Z,19.22
2022-10-13T06:58:01.516Z,19.22
2022-10-13T06:59:01.507Z,19.22
2022-10-13T07:00:01.529Z,19.22
2022-10-13T07:01:01.543Z,19.23
2022-10-13T07:02:01.473Z,19.23
2022-10-13T07:03:01.467Z,19.23
2022-10-13T07:04:01.452Z,19.23
2022-10-13T07:05:01.470Z,19.22
2022-10-13T07:06:01.431Z,19.23
2022-10-13T07:07:01.449Z,19.23
2022-10-13T07:08:01.409Z,19.23
2022-10-13T07:09:01.399Z,19.22
2022-10-13T07:10:01.388Z,19.23
2022-10-13T07:11:01.405Z,19.23
2022-10-13T07:12:01.392Z,19.23
2022-10-13T07:13:01.379Z,19.23
2022-10-13T07:15:01.337Z,19.23
2022-10-13T07:16:01.324Z,19.25
2022-10-13T07:17:01.343Z,19.23
2022-10-13T07:18:01.304Z,19.23
2022-10-13T07:19:01.296Z,19.23
2022-10-13T07:20:03.676Z,19.22
2022-10-13T07:21:02.271Z,19.23
2022-10-13T07:22:01.288Z,19.23
2022-10-13T07:23:01.254Z,19.23
2022-10-13T07:24:01.240Z,19.23
2022-10-13T07:25:01.256Z,19.25
2022-10-13T07:26:01.222Z,19.23
2022-10-13T07:27:06.754Z,19.23
2022-10-13T07:28:02.223Z,19.25
2022-10-13T07:29:01.215Z,19.23
2022-10-13T07:30:01.178Z,19.23
2022-10-13T07:31:01.168Z,19.25
2022-10-13T07:32:01.161Z,19.25
2022-10-13T07:33:01.170Z,19.25
2022-10-13T07:34:01.139Z,19.23
2022-10-13T07:35:01.151Z,19.23
2022-10-13T07:36:01.114Z,19.23
2022-10-13T07:37:01.104Z,19.25
2022-10-13T07:38:01.093Z,19.23
2022-10-13T07:39:01.109Z,19.23
2022-10-13T07:40:01.071Z,19.23
2022-10-13T07:41:01.097Z,19.23
2022-10-13T07:42:01.050Z,19.23
2022-10-13T07:43:01.042Z,19.23
2022-10-13T07:44:01.028Z,19.23
2022-10-13T07:45:01.046Z,19.25
2022-10-13T07:46:01.007Z,19.25
2022-10-13T07:47:01.021Z,19.25
2022-10-13T07:48:00.989Z,19.23
2022-10-13T07:49:00.980Z,19.23
2022-10-13T07:50:00.992Z,19.26
2022-10-13T07:51:00.954Z,19.25
2022-10-13T07:52:00.945Z,19.25
2022-10-13T07:53:00.944Z,19.25
2022-10-13T07:54:00.922Z,19.25
2022-10-13T07:55:00.942Z,19.25
2022-10-13T07:56:00.902Z,19.25
2022-10-13T07:57:00.892Z,19.25
2022-10-13T07:58:00.882Z,19.25
2022-10-13T07:59:00.871Z,19.25
2022-10-13T08:00:00.883Z,19.26
2022-10-13T08:01:00.876Z,19.25
2022-10-13T08:02:00.946Z,19.26
2022-10-13T08:03:00.828Z,19.25
2022-10-13T08:04:00.822Z,19.25
2022-10-13T08:05:00.836Z,19.25
2022-10-13T08:06:00.794Z,19.23
2022-10-13T08:07:00.811Z,19.25
2022-10-13T08:08:00.774Z,19.26
2022-10-13T08:09:00.767Z,19.25
2022-10-13T08:10:00.753Z,19.23
2022-10-13T08:11:00.773Z,19.25
2022-10-13T08:12:01.937Z,19.26
2022-10-13T08:13:00.722Z,19.25
2022-10-13T08:14:00.712Z,19.26
2022-10-13T08:15:05.068Z,19.25
2022-10-13T08:16:01.720Z,19.26
2022-10-13T08:17:00.762Z,19.23
2022-10-13T08:18:00.696Z,19.26
2022-10-13T08:19:00.659Z,19.25
2022-10-13T08:20:00.646Z,19.26
2022-10-13T08:21:23.863Z,19.25
2022-10-13T08:22:01.627Z,19.25
2022-10-13T08:23:00.642Z,19.25
2022-10-13T08:24:00.604Z,19.26
2022-10-13T08:25:00.595Z,19.26
2022-10-13T08:26:00.584Z,19.25
2022-10-13T08:27:00.575Z,19.26
2022-10-13T08:28:00.749Z,19.25
2022-10-13T08:29:20.879Z,19.26
2022-10-13T08:30:01.571Z,19.25
2022-10-13T08:31:00.625Z,19.26
2022-10-13T08:32:00.521Z,19.26
2022-10-13T08:33:00.533Z,19.26
2022-10-13T08:34:00.499Z,19.26
2022-10-13T08:35:00.516Z,19.26
2022-10-13T08:36:00.481Z,19.26
2022-10-13T08:37:00.478Z,19.26
2022-10-13T08:38:00.472Z,19.25
2022-10-13T08:39:00.449Z,19.26
2022-10-13T08:40:00.483Z,19.26
2022-10-13T08:41:00.427Z,19.28
2022-10-13T08:42:00.415Z,19.26
2022-10-13T08:43:00.758Z,19.28
2022-10-13T08:44:39.600Z,19.28
2022-10-13T08:45:39.825Z,19.28
2022-10-13T08:46:01.373Z,19.29
2022-10-13T08:47:00.360Z,19.26
2022-10-13T08:48:00.350Z,19.25
2022-10-13T08:49:00.361Z,19.26
2022-10-13T08:50:01.062Z,19.28
2022-10-13T08:51:00.319Z,19.26
2022-10-13T08:52:00.310Z,19.26
2022-10-13T08:53:00.297Z,19.26
2022-10-13T08:54:00.287Z,19.28
2022-10-13T08:55:00.275Z,19.26
2022-10-13T08:56:00.292Z,19.26
2022-10-13T08:58:00.278Z,19.26
2022-10-13T08:59:00.233Z,19.28
2022-10-13T09:00:00.223Z,19.28
2022-10-13T09:01:00.212Z,19.26
2022-10-13T09:02:00.263Z,19.26
2022-10-13T09:03:00.218Z,19.28
2022-10-13T09:04:00.209Z,19.28
2022-10-13T09:05:00.193Z,19.28
2022-10-13T09:06:00.161Z,19.28
2022-10-13T09:07:00.150Z,19.28
2022-10-13T09:08:00.180Z,19.28
2022-10-13T09:09:00.163Z,19.26
2022-10-13T09:10:00.149Z,19.28
2022-10-13T09:11:00.105Z,19.26
2022-10-13T09:12:00.096Z,19.28
2022-10-13T09:13:00.094Z,19.26
2022-10-13T09:14:00.103Z,19.28
2022-10-13T09:15:00.071Z,19.28
2022-10-13T09:16:00.087Z,19.28
2022-10-13T09:17:00.043Z,19.28
2022-10-13T09:18:00.035Z,19.28
2022-10-13T09:19:00.024Z,19.28
2022-10-13T09:20:00.012Z,19.28
2022-10-13T09:21:00.188Z,19.28
2022-10-13T09:21:59.990Z,19.28
2022-10-13T09:22:59.980Z,19.28
2022-10-13T09:24:00.009Z,19.28
2022-10-13T09:24:59.960Z,19.29
2022-10-13T09:25:59.949Z,19.28
2022-10-13T09:26:59.937Z,19.28
2022-10-13T09:27:59.930Z,19.28
2022-10-13T09:29:00.015Z,19.26
2022-10-13T09:29:59.933Z,19.28
2022-10-13T09:30:59.895Z,19.28
2022-10-13T09:31:59.887Z,19.28
2022-10-13T09:32:59.877Z,19.28
2022-10-13T09:33:59.864Z,19.28
2022-10-13T09:34:59.877Z,19.28
2022-10-13T09:35:59.850Z,19.28
2022-10-13T09:36:59.855Z,19.28
2022-10-13T09:37:59.823Z,19.31
2022-10-13T09:38:59.810Z,19.28
2022-10-13T09:39:59.830Z,19.29
2022-10-13T09:40:59.790Z,19.28
2022-10-13T09:41:59.779Z,19.31
2022-10-13T09:42:59.767Z,19.29
2022-10-13T09:43:59.782Z,19.29
2022-10-13T09:44:59.754Z,19.29
2022-10-13T09:45:59.736Z,19.29
2022-10-13T09:46:59.728Z,19.29
2022-10-13T09:47:59.714Z,19.29
2022-10-13T09:48:59.737Z,19.29
2022-10-13T09:50:04.703Z,19.31
2022-10-13T09:51:00.682Z,19.29
2022-10-13T09:51:59.672Z,19.28
2022-10-13T09:52:59.732Z,19.31
2022-10-13T09:53:59.681Z,19.29
2022-10-13T09:54:59.640Z,19.29
2022-10-13T09:55:59.630Z,19.29
2022-10-13T09:56:59.622Z,19.31
2022-10-13T09:57:59.636Z,19.29
2022-10-13T09:58:59.601Z,19.31
2022-10-13T09:59:59.587Z,19.31
2022-10-13T10:00:59.579Z,19.29
2022-10-13T10:01:59.566Z,19.29
2022-10-13T10:02:59.644Z,19.31
2022-10-13T10:03:59.596Z,19.31
2022-10-13T10:04:59.537Z,19.31
2022-10-13T10:05:59.634Z,19.29
2022-10-13T10:06:59.516Z,19.31
2022-10-13T10:07:59.503Z,19.31
2022-10-13T10:09:04.115Z,19.31
2022-10-13T10:10:00.491Z,19.31
2022-10-13T10:10:59.473Z,19.31
2022-10-13T10:11:59.459Z,19.32
2022-10-13T10:12:59.450Z,19.31
2022-10-13T10:13:59.465Z,19.31
2022-10-13T10:14:59.428Z,19.31
2022-10-13T10:15:59.419Z,19.31
2022-10-13T10:16:59.409Z,19.31
2022-10-13T10:17:59.402Z,19.32
2022-10-13T10:18:59.414Z,19.31
2022-10-13T10:19:59.400Z,19.31
2022-10-13T10:20:59.365Z,19.32
2022-10-13T10:21:59.379Z,19.31
2022-10-13T10:22:59.343Z,19.31
2022-10-13T10:23:59.333Z,19.31
2022-10-13T10:24:59.349Z,19.31
2022-10-13T10:25:59.338Z,19.31
2022-10-13T10:26:59.301Z,19.31
2022-10-13T10:27:59.294Z,19.31
2022-10-13T10:28:59.411Z,19.31
2022-10-13T10:29:59.269Z,19.31
2022-10-13T10:30:59.286Z,19.32
2022-10-13T10:31:59.248Z,19.31
2022-10-13T10:32:59.236Z,19.32
2022-10-13T10:33:59.225Z,19.32
2022-10-13T10:34:59.217Z,19.32
2022-10-13T10:35:59.231Z,19.32
2022-10-13T10:36:59.218Z,19.32
2022-10-13T10:37:59.184Z,19.32
2022-10-13T10:38:59.174Z,19.31
2022-10-13T10:39:59.161Z,19.31
2022-10-13T10:40:59.176Z,19.31
2022-10-13T10:41:59.168Z,19.32
2022-10-13T10:42:59.133Z,19.31
2022-10-13T10:43:59.120Z,19.31
2022-10-13T10:44:59.110Z,19.31
2022-10-13T10:45:59.107Z,19.33
2022-10-13T10:46:59.114Z,19.31
2022-10-13T10:47:59.079Z,19.32
2022-10-13T10:48:59.069Z,19.32
2022-10-13T10:49:59.083Z,19.32
2022-10-13T10:50:59.048Z,19.32
2022-10-13T10:51:59.034Z,19.32
2022-10-13T10:52:59.027Z,19.33
2022-10-13T10:53:59.015Z,19.33
2022-10-13T10:54:59.032Z,19.31
2022-10-13T10:55:58.994Z,19.32
2022-10-13T10:56:59.007Z,19.32
2022-10-13T10:57:58.971Z,19.32
2022-10-13T10:58:58.963Z,19.32
2022-10-13T10:59:58.976Z,19.32
2022-10-13T11:00:58.943Z,19.32
2022-10-13T11:01:58.929Z,19.32
2022-10-13T11:02:58.955Z,19.32
2022-10-13T11:03:58.908Z,19.33
2022-10-13T11:05:03.458Z,19.32
2022-10-13T11:05:59.885Z,19.32
2022-10-13T11:06:58.902Z,19.32
2022-10-13T11:07:58.870Z,19.33
2022-10-13T11:08:58.857Z,19.31
2022-10-13T11:09:58.846Z,19.33
2022-10-13T11:10:58.840Z,19.32
2022-10-13T11:11:58.854Z,19.33
2022-10-13T11:12:58.864Z,19.33
2022-10-13T11:13:58.802Z,19.33
2022-10-13T11:14:58.794Z,19.32
2022-10-13T11:15:58.790Z,19.31
2022-10-13T11:16:58.774Z,19.32
2022-10-13T11:17:58.793Z,19.32
2022-10-13T11:18:58.751Z,19.33
2022-10-13T11:19:58.738Z,19.32
2022-10-13T11:20:58.728Z,19.32
2022-10-13T11:21:58.763Z,19.32
2022-10-13T11:22:58.709Z,19.32
2022-10-13T11:24:01.984Z,19.32
2022-10-13T11:24:58.716Z,19.33
2022-10-13T11:25:58.674Z,19.33
2022-10-13T11:26:58.668Z,19.32
2022-10-13T11:27:58.655Z,19.33
2022-10-13T11:28:58.666Z,19.32
2022-10-13T11:29:58.681Z,19.33
2022-10-13T11:30:58.623Z,19.32
2022-10-13T11:31:58.631Z,19.33
2022-10-13T11:32:58.604Z,19.32
2022-10-13T11:33:58.594Z,19.33
2022-10-13T11:34:58.639Z,19.33
2022-10-13T11:35:58.569Z,19.32
2022-10-13T11:36:58.561Z,19.33
2022-10-13T11:38:08.773Z,19.33
2022-10-13T11:38:59.549Z,19.33
2022-10-13T11:39:58.558Z,19.32
2022-10-13T11:40:58.518Z,19.32
2022-10-13T11:41:58.530Z,19.33
2022-10-13T11:42:59.471Z,19.33
2022-10-13T11:43:58.515Z,19.33
2022-10-13T11:44:58.503Z,19.33
2022-10-13T11:45:58.462Z,19.33
2022-10-13T11:46:58.453Z,19.33
2022-10-13T11:47:58.491Z,19.33
2022-10-13T11:48:58.465Z,19.32
2022-10-13T11:49:58.420Z,19.33
2022-10-13T11:50:58.415Z,19.33
2022-10-13T11:51:58.400Z,19.32
2022-10-13T11:52:58.418Z,19.33
2022-10-13T11:53:58.379Z,19.32
2022-10-13T11:54:58.393Z,19.33
2022-10-13T11:55:58.357Z,19.33
2022-10-13T11:56:58.375Z,19.32
2022-10-13T11:57:58.335Z,19.32
2022-10-13T11:58:58.329Z,19.33
2022-10-13T11:59:58.316Z,19.32
2022-10-13T12:00:58.353Z,19.32
2022-10-13T12:01:58.293Z,19.32
2022-10-13T12:02:58.361Z,19.33
2022-10-13T12:03:58.298Z,19.32
2022-10-13T12:04:58.263Z,19.33
2022-10-13T12:05:58.254Z,19.32
2022-10-13T12:06:58.246Z,19.32
2022-10-13T12:07:58.230Z,19.32
2022-10-13T12:08:58.246Z,19.32
2022-10-13T12:09:58.209Z,19.33
2022-10-13T12:10:58.203Z,19.32
2022-10-13T12:11:58.190Z,19.32
2022-10-13T12:12:58.179Z,19.32
2022-10-13T12:13:58.193Z,19.32
2022-10-13T12:15:01.109Z,19.31
2022-10-13T12:15:59.144Z,19.32
2022-10-13T12:16:58.210Z,19.32
2022-10-13T12:17:58.123Z,19.33
2022-10-13T12:18:58.145Z,19.32
2022-10-13T12:19:58.103Z,19.32
2022-10-13T12:20:58.097Z,19.32
2022-10-13T12:21:58.111Z,19.31
2022-10-13T12:22:58.073Z,19.32
2022-10-13T12:23:58.061Z,19.32
2022-10-13T12:24:58.051Z,19.32
2022-10-13T12:25:58.042Z,19.32
2022-10-13T12:26:58.060Z,19.32
2022-10-13T12:27:58.047Z,19.32
2022-10-13T12:28:58.121Z,19.32
2022-10-13T12:29:57.998Z,19.32
2022-10-13T12:30:57.986Z,19.33
2022-10-13T12:31:57.976Z,19.31
2022-10-13T12:32:58.015Z,19.32
2022-10-13T12:33:57.955Z,19.32
2022-10-13T12:34:57.949Z,19.32
2022-10-13T12:35:57.935Z,19.33
2022-10-13T12:36:57.924Z,19.32
2022-10-13T12:37:57.940Z,19.32
2022-10-13T12:38:57.904Z,19.33
2022-10-13T12:39:57.934Z,19.32
2022-10-13T12:40:57.883Z,19.32
2022-10-13T12:41:57.870Z,19.32
2022-10-13T12:42:57.862Z,19.31
2022-10-13T12:44:01.153Z,19.31
2022-10-13T12:44:58.868Z,19.33
2022-10-13T12:45:57.827Z,19.32
2022-10-13T12:46:57.852Z,19.32
2022-10-13T12:47:57.807Z,19.32
2022-10-13T12:48:57.822Z,19.33
2022-10-13T12:49:57.785Z,19.32
2022-10-13T12:50:57.780Z,19.32
2022-10-13T12:51:57.795Z,19.32
2022-10-13T12:52:57.797Z,19.32
2022-10-13T12:53:57.746Z,19.32